Time;durP1;ratioP1;P1;durP2;ratioP2;P2;SDS_P1;SDS_P2;PMS_P1;PMS_P2;Temp;Humidity;BMP_temperature;BMP_pressure;BME280_temperature;BME280_humidity;BME280_pressure;Samples;Min_cycle;Max_cycle;Signal;HPM_P1;HPM_P2
2023/01/01 00:05:53;;;;;;;45.87;20.10;;;7.10;99.90;;;;;;21159288;28;19949;-79
2023/01/01 00:15:54;;;;;;;223.37;93.23;;;7.00;99.90;;;;;;21138825;28;20047;-79
2023/01/01 00:25:58;;;;;;;68.43;28.03;;;7.00;99.90;;;;;;21157586;28;20386;-79
2023/01/01 00:36:08;;;;;;;50.17;24.67;;;7.00;99.90;;;;;;21161627;28;20555;-79
2023/01/01 00:46:10;;;;;;;89.57;37.53;;;7.10;99.90;;;;;;21187924;28;20130;-80
2023/01/01 00:56:14;;;;;;;79.47;34.45;;;7.00;99.90;;;;;;21255926;28;20047;-80
2023/01/01 01:06:16;;;;;;;102.47;41.20;;;6.90;99.90;;;;;;21263036;27;20043;-79
2023/01/01 01:16:21;;;;;;;50.30;24.05;;;6.90;99.90;;;;;;21281622;27;20370;-79
2023/01/01 01:26:25;;;;;;;38.90;19.90;;;7.00;99.90;;;;;;21272972;27;20031;-80
2023/01/01 01:36:26;;;;;;;47.05;21.92;;;7.00;99.90;;;;;;21271341;27;20113;-80
2023/01/01 01:46:44;;;;;;;35.08;16.40;;;7.30;99.90;;;;;;21270567;27;20035;-80
2023/01/01 01:56:48;;;;;;;43.97;17.20;;;7.40;99.90;;;;;;21251307;27;20477;-80
2023/01/01 02:06:51;;;;;;;37.25;16.88;;;7.10;99.90;;;;;;21269260;27;20039;-80
2023/01/01 02:17:00;;;;;;;32.75;16.67;;;7.20;99.90;;;;;;21268428;27;20093;-80
2023/01/01 02:27:32;;;;;;;39.60;16.08;;;7.10;99.90;;;;;;21247372;27;20049;-79
2023/01/01 02:37:34;;;;;;;30.58;14.48;;;7.30;99.90;;;;;;21248356;27;20054;-80
2023/01/01 02:47:37;;;;;;;43.78;20.80;;;7.50;99.90;;;;;;21262705;27;20050;-78
2023/01/01 02:57:47;;;;;;;50.55;24.02;;;7.40;99.90;;;;;;21263561;27;20035;-79
2023/01/01 03:08:03;;;;;;;39.83;15.63;;;7.20;99.90;;;;;;21262473;27;20121;-79
2023/01/01 03:18:32;;;;;;;32.40;13.18;;;7.00;99.90;;;;;;21264543;27;20035;-80
2023/01/01 03:28:45;;;;;;;96.47;44.42;;;7.60;99.90;;;;;;21258456;27;20086;-80
2023/01/01 03:39:00;;;;;;;74.00;32.35;;;7.40;99.90;;;;;;21263366;27;20031;-80
2023/01/01 03:49:04;;;;;;;29.73;12.13;;;7.30;99.90;;;;;;21163938;28;20092;-79
2023/01/01 03:59:40;;;;;;;29.85;14.18;;;7.60;99.90;;;;;;21164097;28;20047;-79
2023/01/01 04:09:51;;;;;;;24.00;11.80;;;7.60;99.90;;;;;;21162527;28;20052;-79
2023/01/01 04:19:52;;;;;;;60.65;27.17;;;7.30;99.90;;;;;;21184091;28;20200;-79
2023/01/01 04:29:52;;;;;;;24.03;11.40;;;7.50;99.90;;;;;;21306805;27;20043;-78
2023/01/01 04:39:54;;;;;;;30.40;14.90;;;7.10;99.90;;;;;;21292955;27;20289;-80
2023/01/01 04:49:55;;;;;;;21.00;11.07;;;7.10;99.90;;;;;;21270497;27;20066;-80
2023/01/01 04:59:57;;;;;;;21.35;10.57;;;7.00;99.90;;;;;;21271763;27;20045;-79
2023/01/01 05:09:57;;;;;;;26.98;12.32;;;6.70;99.90;;;;;;21251844;27;20044;-80
2023/01/01 05:19:59;;;;;;;37.17;17.10;;;6.60;99.90;;;;;;21274151;27;20485;-79
2023/01/01 05:30:01;;;;;;;25.42;10.35;;;6.30;99.90;;;;;;21268718;27;20630;-79
2023/01/01 05:40:02;;;;;;;20.77;9.63;;;6.40;99.90;;;;;;21267449;27;20042;-79
2023/01/01 05:50:03;;;;;;;;;;;6.30;99.90;;;;;;21264584;27;20042;-79
2023/01/01 06:00:04;;;;;;;20.17;10.60;;;6.80;99.90;;;;;;21242680;27;19923;-79
2023/01/01 06:10:08;;;;;;;21.58;10.25;;;6.70;99.90;;;;;;21233640;27;20043;-79
2023/01/01 06:20:10;;;;;;;19.77;9.38;;;6.70;99.90;;;;;;21178421;28;20040;-79
2023/01/01 06:30:11;;;;;;;24.05;10.75;;;6.60;99.90;;;;;;21085510;28;20560;-78
2023/01/01 06:40:13;;;;;;;23.17;13.65;;;6.80;99.90;;;;;;21049785;28;20044;-79
2023/01/01 06:50:14;;;;;;;25.13;13.77;;;7.00;99.90;;;;;;21083283;28;20048;-79
2023/01/01 07:00:15;;;;;;;20.40;9.00;;;6.90;99.90;;;;;;21158893;28;20039;-79
2023/01/01 07:10:17;;;;;;;17.35;8.10;;;6.70;99.90;;;;;;21204276;27;20130;-79
2023/01/01 07:20:17;;;;;;;25.13;9.20;;;7.00;99.90;;;;;;21240606;27;20039;-79
2023/01/01 07:30:19;;;;;;;24.20;13.40;;;7.10;99.90;;;;;;21259877;27;20037;-79
2023/01/01 07:40:19;;;;;;;16.00;9.23;;;6.10;99.90;;;;;;21260576;27;20459;-79
2023/01/01 07:50:23;;;;;;;13.00;7.10;;;6.70;99.90;;;;;;21258674;27;20031;-79
2023/01/01 08:00:26;;;;;;;13.98;6.80;;;7.70;99.90;;;;;;21240823;27;20047;-79
2023/01/01 08:10:26;;;;;;;16.88;5.78;;;8.50;99.90;;;;;;21256137;27;20050;-78
2023/01/01 08:20:28;;;;;;;;;;;8.80;99.90;;;;;;21237129;27;20043;-79
2023/01/01 08:30:30;;;;;;;15.93;6.70;;;8.90;99.90;;;;;;21254944;27;19917;-78
2023/01/01 08:40:31;;;;;;;12.55;5.43;;;9.10;99.90;;;;;;21178472;28;20039;-79
2023/01/01 08:50:32;;;;;;;19.17;10.30;;;9.50;99.90;;;;;;21143495;28;20051;-79
2023/01/01 09:00:33;;;;;;;32.40;16.33;;;9.80;99.90;;;;;;21177068;28;20067;-79
2023/01/01 09:10:34;;;;;;;21.50;12.13;;;10.70;99.90;;;;;;21188562;27;20047;-78
2023/01/01 09:20:35;;;;;;;10.77;5.07;;;11.40;99.90;;;;;;21269765;27;20041;-79
2023/01/01 09:30:36;;;;;;;15.07;7.15;;;12.10;99.90;;;;;;21268986;27;20031;-79
2023/01/01 09:40:52;;;;;;;11.23;5.77;;;12.90;99.90;;;;;;21243209;27;20067;-78
2023/01/01 09:50:53;;;;;;;13.02;6.57;;;13.40;99.90;;;;;;21260410;27;20035;-78
2023/01/01 10:01:00;;;;;;;13.43;6.17;;;12.80;99.90;;;;;;21261876;27;20540;-78
2023/01/01 10:11:18;;;;;;;14.27;6.05;;;12.80;99.90;;;;;;21261663;27;20039;-77
2023/01/01 10:21:22;;;;;;;14.52;6.97;;;12.90;99.90;;;;;;21070856;28;20042;-76
2023/01/01 10:31:39;;;;;;;13.48;6.57;;;13.70;99.90;;;;;;21073119;28;20071;-75
2023/01/01 10:41:40;;;;;;;19.08;6.10;;;14.00;99.90;;;;;;21052447;28;20036;-76
2023/01/01 10:51:47;;;;;;;9.87;6.53;;;14.10;99.90;;;;;;21196430;27;20035;-76
2023/01/01 11:02:18;;;;;;;13.10;5.68;;;14.30;99.90;;;;;;21246603;27;20039;-76
2023/01/01 11:12:26;;;;;;;15.82;5.82;;;14.50;99.90;;;;;;21245300;27;20077;-77
2023/01/01 11:22:50;;;;;;;16.10;6.38;;;14.80;99.90;;;;;;21209524;27;20035;-76
2023/01/01 11:33:03;;;;;;;10.23;6.05;;;14.80;99.90;;;;;;21242767;27;20027;-77
2023/01/01 11:43:06;;;;;;;12.40;5.33;;;15.50;99.90;;;;;;21244079;27;20031;-75
2023/01/01 11:53:19;;;;;;;7.53;3.72;;;16.00;99.90;;;;;;21242232;27;20115;-76
2023/01/01 12:03:46;;;;;;;8.73;4.05;;;16.10;99.90;;;;;;21223764;27;20118;-76
2023/01/01 12:13:54;;;;;;;8.35;4.20;;;16.10;99.90;;;;;;21242953;28;20043;-75
2023/01/01 12:23:57;;;;;;;6.97;4.05;;;16.90;99.90;;;;;;21244341;28;20450;-77
2023/01/01 12:34:20;;;;;;;6.70;3.27;;;17.10;99.90;;;;;;21245233;28;20169;-76
2023/01/01 12:45:02;;;;;;;8.70;3.25;;;17.50;99.90;;;;;;21245405;28;20035;-77
2023/01/01 12:55:15;;;;;;;6.27;2.27;;;17.10;99.90;;;;;;21144656;28;20075;-77
2023/01/01 13:05:22;;;;;;;6.10;2.65;;;17.50;99.90;;;;;;21247965;27;20032;-76
2023/01/01 13:15:42;;;;;;;9.07;2.53;;;17.60;99.90;;;;;;21256709;27;20057;-76
2023/01/01 13:25:43;;;;;;;4.68;2.30;;;17.90;99.90;;;;;;21252070;27;20039;-76
2023/01/01 13:35:44;;;;;;;3.20;1.97;;;18.00;99.90;;;;;;21254260;27;20386;-76
2023/01/01 13:45:52;;;;;;;8.53;2.13;;;18.30;99.90;;;;;;21254409;27;20285;-76
2023/01/01 13:56:20;;;;;;;5.07;2.30;;;16.20;99.90;;;;;;21235405;27;20047;-76
2023/01/01 14:06:47;;;;;;;7.45;2.28;;;16.50;99.90;;;;;;21252399;27;20046;-77
2023/01/01 14:16:49;;;;;;;5.93;2.33;;;16.90;99.90;;;;;;20821994;28;20080;-76
2023/01/01 14:26:53;;;;;;;6.60;2.03;;;16.80;99.90;;;;;;20816666;28;20041;-77
2023/01/01 14:36:57;;;;;;;4.75;1.92;;;17.70;99.90;;;;;;20817563;28;20116;-77
2023/01/01 14:47:02;;;;;;;5.93;2.10;;;17.80;99.90;;;;;;20915345;27;20035;-77
2023/01/01 14:57:19;;;;;;;12.68;3.40;;;18.20;99.90;;;;;;21229334;27;20202;-77
2023/01/01 15:07:24;;;;;;;8.80;1.75;;;18.20;99.90;;;;;;21239008;27;20043;-77
2023/01/01 15:17:25;;;;;;;6.93;2.20;;;17.30;99.90;;;;;;21076608;28;20040;-77
2023/01/01 15:27:32;;;;;;;5.88;2.17;;;15.80;99.90;;;;;;21075256;28;20044;-77
2023/01/01 15:37:45;;;;;;;5.65;2.45;;;14.60;99.90;;;;;;21075297;28;20040;-77
2023/01/01 15:47:52;;;;;;;5.95;2.08;;;13.10;99.90;;;;;;21073621;28;20043;-77
2023/01/01 15:57:53;;;;;;;3.55;1.90;;;12.70;99.90;;;;;;21074525;28;20044;-77
2023/01/01 16:08:03;;;;;;;3.78;2.00;;;12.20;99.90;;;;;;21091908;28;20548;-77
2023/01/01 16:18:04;;;;;;;4.60;1.90;;;11.90;99.90;;;;;;21242198;28;20100;-77
2023/01/01 16:28:07;;;;;;;9.13;4.17;;;12.00;99.90;;;;;;21242025;28;20072;-77
2023/01/01 16:38:09;;;;;;;7.40;2.75;;;11.80;99.90;;;;;;21250318;27;20046;-77
2023/01/01 16:48:10;;;;;;;32.78;15.05;;;11.30;99.90;;;;;;21257772;27;20045;-77
2023/01/01 16:58:10;;;;;;;11.40;2.83;;;10.80;99.90;;;;;;21256451;27;20446;-77
2023/01/01 17:08:13;;;;;;;11.30;2.75;;;10.20;99.90;;;;;;21245187;27;20089;-77
2023/01/01 17:18:15;;;;;;;19.75;9.32;;;10.10;99.90;;;;;;21170678;28;20107;-77
2023/01/01 17:28:16;;;;;;;7.00;3.78;;;10.30;99.90;;;;;;21170325;28;20032;-77
2023/01/01 17:38:18;;;;;;;7.70;3.07;;;9.30;99.90;;;;;;21169003;28;20054;-77
2023/01/01 17:48:20;;;;;;;9.13;3.00;;;9.00;99.90;;;;;;21168257;28;20066;-77
2023/01/01 17:58:21;;;;;;;8.25;2.65;;;9.40;99.90;;;;;;21166335;28;20073;-77
2023/01/01 18:08:22;;;;;;;10.15;3.80;;;9.80;99.90;;;;;;21177324;27;20523;-77
2023/01/01 18:18:23;;;;;;;6.53;3.10;;;9.90;99.90;;;;;;21231380;27;20107;-76
2023/01/01 18:28:24;;;;;;;4.82;2.65;;;9.50;99.90;;;;;;21248218;27;20068;-78
2023/01/01 18:38:27;;;;;;;15.23;7.47;;;9.30;99.90;;;;;;21249742;27;20031;-77
2023/01/01 18:48:28;;;;;;;11.05;3.00;;;9.50;99.90;;;;;;21234312;27;20047;-77
2023/01/01 18:58:31;;;;;;;18.17;7.57;;;9.30;99.90;;;;;;21228466;27;20092;-77
2023/01/01 19:08:32;;;;;;;4.43;2.38;;;9.30;99.90;;;;;;21246221;27;20043;-77
2023/01/01 19:18:33;;;;;;;7.00;2.53;;;9.50;99.90;;;;;;21229590;27;20408;-79
2023/01/01 19:28:35;;;;;;;16.50;5.13;;;9.40;99.90;;;;;;21231178;27;20043;-77
2023/01/01 19:38:38;;;;;;;9.77;2.75;;;9.20;99.90;;;;;;21227781;27;20047;-77
2023/01/01 19:48:40;;;;;;;10.77;4.32;;;9.00;99.90;;;;;;21246813;27;20076;-77
2023/01/01 19:58:41;;;;;;;5.95;2.90;;;8.90;99.90;;;;;;21227269;27;20493;-77
2023/01/01 20:08:42;;;;;;;7.22;2.40;;;8.80;99.90;;;;;;21228232;27;20132;-77
2023/01/01 20:18:43;;;;;;;6.57;2.53;;;8.80;99.90;;;;;;21248841;28;20035;-77
2023/01/01 20:39:03;;;;;;;9.15;3.35;;;8.90;99.90;;;;;;21244475;28;20039;-78
2023/01/01 20:49:09;;;;;;;7.90;3.30;;;8.90;99.90;;;;;;21242049;28;20041;-78
2023/01/01 20:59:11;;;;;;;7.07;2.78;;;8.80;99.90;;;;;;21241181;28;20120;-77
2023/01/01 21:09:12;;;;;;;7.38;3.10;;;9.00;99.90;;;;;;21239780;28;20543;-77
2023/01/01 21:19:13;;;;;;;8.37;2.60;;;8.80;99.90;;;;;;21239507;27;20063;-77
2023/01/01 21:29:16;;;;;;;;;;;8.60;99.90;;;;;;21255522;27;20458;-77
2023/01/01 21:39:26;;;;;;;11.32;2.60;;;8.60;99.90;;;;;;21254597;27;20048;-77
2023/01/01 21:49:38;;;;;;;7.70;2.57;;;8.60;99.90;;;;;;21262783;27;20375;-77
2023/01/01 21:59:43;;;;;;;5.00;2.50;;;8.50;99.90;;;;;;21231065;27;20035;-77
2023/01/01 22:09:46;;;;;;;5.32;2.50;;;8.50;99.90;;;;;;21249456;27;20058;-77
2023/01/01 22:19:48;;;;;;;5.57;2.65;;;8.20;99.90;;;;;;21249043;27;20084;-77
2023/01/01 22:29:49;;;;;;;3.63;2.38;;;8.40;99.90;;;;;;21246780;27;20047;-77
2023/01/01 22:39:50;;;;;;;;;;;8.20;99.90;;;;;;21247139;27;20043;-77
2023/01/01 22:49:52;;;;;;;7.38;3.13;;;8.20;99.90;;;;;;21259625;27;19912;-78
2023/01/01 22:59:53;;;;;;;11.60;2.92;;;8.00;99.90;;;;;;21249479;27;20396;-78
2023/01/01 23:09:56;;;;;;;5.93;3.00;;;7.60;99.90;;;;;;21195711;27;20105;-77
2023/01/01 23:19:58;;;;;;;8.60;3.92;;;7.50;99.90;;;;;;21033209;28;20130;-77
2023/01/01 23:30:01;;;;;;;6.70;3.30;;;7.10;99.90;;;;;;20992310;28;20033;-77
2023/01/01 23:40:03;;;;;;;8.02;2.55;;;7.00;99.90;;;;;;20991618;28;20094;-77
2023/01/01 23:50:05;;;;;;;9.93;2.78;;;7.30;99.90;;;;;;21037787;28;20047;-77
